createdAt,value
2022-09-17T00:01:49.143Z,25.50
2022-09-17T00:04:18.499Z,25.50
2022-09-17T00:06:47.851Z,25.50
2022-09-17T00:09:17.957Z,25.60
2022-09-17T00:11:47.374Z,25.60
2022-09-17T00:14:19.909Z,25.60
2022-09-17T00:16:50.913Z,25.60
2022-09-17T00:19:24.629Z,25.70
2022-09-17T00:21:54.062Z,25.70
2022-09-17T00:24:23.943Z,25.70
2022-09-17T00:26:54.656Z,25.80
2022-09-17T00:29:23.871Z,25.80
2022-09-17T00:31:53.707Z,25.90
2022-09-17T00:34:22.917Z,25.90
2022-09-17T00:36:52.102Z,25.90
2022-09-17T00:39:21.213Z,26.00
2022-09-17T00:41:50.484Z,26.00
2022-09-17T00:44:52.380Z,26.00
2022-09-17T00:47:46.700Z,26.10
2022-09-17T00:50:47.797Z,26.10
2022-09-17T00:53:22.030Z,26.20
2022-09-17T00:56:04.730Z,26.20
2022-09-17T00:58:40.971Z,26.30
2022-09-17T01:01:10.881Z,26.30
2022-09-17T01:03:40.198Z,26.40
2022-09-17T01:06:42.609Z,26.40
2022-09-17T01:09:44.971Z,26.50
2022-09-17T01:13:01.052Z,26.60
2022-09-17T01:16:04.961Z,26.60
2022-09-17T01:19:26.175Z,26.70
2022-09-17T01:22:42.136Z,26.80
2022-09-17T01:25:53.799Z,26.80
2022-09-17T01:29:04.984Z,26.90
2022-09-17T01:32:08.298Z,27.00
2022-09-17T01:35:16.704Z,27.10
2022-09-17T01:38:31.334Z,27.20
2022-09-17T01:41:40.525Z,27.20
2022-09-17T01:44:44.387Z,27.30
2022-09-17T01:47:43.900Z,27.40
2022-09-17T01:50:27.850Z,27.40
2022-09-17T01:52:59.411Z,27.50
2022-09-17T01:55:37.198Z,27.50
2022-09-17T01:58:32.261Z,27.60
2022-09-17T02:01:08.196Z,27.70
2022-09-17T02:04:10.868Z,27.70
2022-09-17T02:06:44.326Z,27.80
2022-09-17T02:09:26.499Z,27.80
2022-09-17T02:12:02.230Z,27.80
2022-09-17T02:14:45.081Z,27.90
2022-09-17T02:17:26.601Z,27.90
2022-09-17T02:19:57.625Z,28.00
2022-09-17T02:22:46.441Z,28.00
2022-09-17T02:25:38.720Z,28.10
2022-09-17T02:28:39.506Z,28.10
2022-09-17T02:31:09.351Z,28.10
2022-09-17T02:33:42.818Z,28.10
2022-09-17T02:36:12.285Z,28.10
2022-09-17T02:38:46.831Z,28.10
2022-09-17T02:41:55.336Z,28.10
2022-09-17T02:45:00.379Z,28.10
2022-09-17T02:48:06.602Z,28.10
2022-09-17T02:51:19.880Z,28.10
2022-09-17T02:54:39.951Z,28.10
2022-09-17T02:57:49.268Z,28.10
2022-09-17T03:00:22.183Z,28.10
2022-09-17T03:03:15.718Z,28.10
2022-09-17T03:05:46.577Z,28.20
2022-09-17T03:08:19.870Z,28.20
2022-09-17T03:10:50.434Z,28.20
2022-09-17T03:13:20.288Z,28.20
2022-09-17T03:15:49.491Z,28.30
2022-09-17T03:18:18.948Z,28.40
2022-09-17T03:20:48.219Z,28.40
2022-09-17T03:23:17.786Z,28.40
2022-09-17T03:25:50.629Z,28.50
2022-09-17T03:28:19.953Z,28.50
2022-09-17T03:30:49.524Z,28.50
2022-09-17T03:33:18.807Z,28.50
2022-09-17T03:35:48.841Z,28.50
2022-09-17T03:38:18.898Z,28.60
2022-09-17T03:41:05.207Z,28.60
2022-09-17T03:43:35.011Z,28.60
2022-09-17T03:46:04.487Z,28.60
2022-09-17T03:48:38.021Z,28.70
2022-09-17T03:51:07.898Z,28.70
2022-09-17T03:53:37.272Z,28.80
2022-09-17T03:56:09.093Z,28.80
2022-09-17T03:58:39.860Z,28.80
2022-09-17T04:01:09.235Z,28.80
2022-09-17T04:03:38.540Z,28.80
2022-09-17T04:06:08.075Z,28.90
2022-09-17T04:08:38.107Z,28.90
2022-09-17T04:11:08.878Z,28.90
2022-09-17T04:13:38.237Z,29.00
2022-09-17T04:16:07.834Z,29.00
2022-09-17T04:18:37.298Z,29.10
2022-09-17T04:21:07.230Z,29.10
2022-09-17T04:23:36.509Z,29.20
2022-09-17T04:26:06.049Z,29.20
2022-09-17T04:28:35.457Z,29.20
2022-09-17T04:31:04.815Z,29.30
2022-09-17T04:33:34.144Z,29.30
2022-09-17T04:36:03.514Z,29.30
2022-09-17T04:38:34.500Z,29.30
2022-09-17T04:41:03.844Z,29.40
2022-09-17T04:43:33.020Z,29.40
2022-09-17T04:46:02.384Z,29.50
2022-09-17T04:48:31.604Z,29.60
2022-09-17T04:51:00.711Z,29.60
2022-09-17T04:53:29.964Z,29.70
2022-09-17T04:55:59.100Z,29.70
2022-09-17T04:58:28.487Z,29.70
2022-09-17T05:00:57.738Z,29.80
2022-09-17T05:03:27.321Z,29.80
2022-09-17T05:05:57.040Z,29.80
2022-09-17T05:08:26.610Z,29.80
2022-09-17T05:10:55.824Z,29.80
2022-09-17T05:13:25.078Z,29.80
2022-09-17T05:15:57.716Z,29.80
2022-09-17T05:18:27.462Z,29.80
2022-09-17T05:20:56.678Z,29.80
2022-09-17T05:23:25.982Z,29.80
2022-09-17T05:26:01.057Z,29.90
2022-09-17T05:28:31.400Z,29.90
2022-09-17T05:31:05.092Z,29.90
2022-09-17T05:33:34.404Z,29.90
2022-09-17T05:36:03.955Z,29.90
2022-09-17T05:38:33.168Z,29.90
2022-09-17T05:41:07.772Z,29.90
2022-09-17T05:43:37.200Z,30.00
2022-09-17T05:46:08.493Z,30.00
2022-09-17T05:48:37.763Z,30.00
2022-09-17T05:51:07.085Z,30.00
2022-09-17T05:53:36.709Z,30.00
2022-09-17T05:56:06.054Z,30.10
2022-09-17T05:58:35.515Z,30.10
2022-09-17T06:01:04.894Z,30.10
2022-09-17T06:03:34.431Z,30.10
2022-09-17T06:06:03.685Z,30.10
2022-09-17T06:08:33.035Z,30.20
2022-09-17T06:11:10.504Z,30.20
2022-09-17T06:13:39.731Z,30.20
2022-09-17T06:16:09.022Z,30.20
2022-09-17T06:18:38.265Z,30.30
2022-09-17T06:21:07.644Z,30.30
2022-09-17T06:23:37.359Z,30.40
2022-09-17T06:26:08.163Z,30.40
2022-09-17T06:28:50.868Z,30.50
2022-09-17T06:31:20.243Z,30.50
2022-09-17T06:33:49.488Z,30.60
2022-09-17T06:36:18.738Z,30.60
2022-09-17T06:38:48.009Z,30.70
2022-09-17T06:41:18.018Z,30.70
2022-09-17T06:43:47.226Z,30.80
2022-09-17T06:46:17.016Z,30.90
2022-09-17T06:48:46.206Z,31.00
2022-09-17T06:51:15.911Z,31.20
2022-09-17T06:53:45.202Z,31.30
2022-09-17T06:56:14.527Z,31.40
2022-09-17T06:58:44.840Z,31.50
2022-09-17T07:01:15.216Z,31.60
2022-09-17T07:03:45.262Z,31.70
2022-09-17T07:06:14.780Z,31.80
2022-09-17T07:08:44.181Z,31.90
2022-09-17T07:11:14.304Z,31.90
2022-09-17T07:13:43.617Z,31.90
2022-09-17T07:16:13.245Z,32.00
2022-09-17T07:18:42.474Z,32.00
2022-09-17T07:21:12.435Z,32.00
2022-09-17T07:23:41.842Z,32.10
2022-09-17T07:26:17.136Z,32.10
2022-09-17T07:28:46.858Z,32.10
2022-09-17T07:31:17.409Z,32.10
2022-09-17T07:33:47.509Z,32.20
2022-09-17T07:36:21.636Z,32.20
2022-09-17T07:38:50.768Z,32.40
2022-09-17T07:41:20.450Z,32.40
2022-09-17T07:43:50.115Z,32.50
2022-09-17T07:46:22.506Z,32.50
2022-09-17T07:48:52.870Z,32.70
2022-09-17T07:51:26.579Z,32.70
2022-09-17T07:54:00.077Z,32.80
2022-09-17T07:56:30.661Z,32.80
2022-09-17T07:59:00.066Z,32.70
2022-09-17T08:01:29.384Z,32.70
2022-09-17T08:03:58.595Z,32.60
2022-09-17T08:06:31.953Z,32.60
2022-09-17T08:09:02.306Z,32.50
2022-09-17T08:11:54.633Z,32.50
2022-09-17T08:14:26.985Z,32.50
2022-09-17T08:16:58.958Z,32.40
2022-09-17T08:19:32.225Z,32.40
2022-09-17T08:22:01.585Z,32.40
2022-09-17T08:24:30.786Z,32.40
2022-09-17T08:27:00.036Z,32.40
2022-09-17T08:29:32.080Z,32.30
2022-09-17T08:32:04.794Z,32.30
2022-09-17T08:34:34.026Z,32.30
2022-09-17T08:37:04.090Z,32.30
2022-09-17T08:39:33.199Z,32.30
2022-09-17T08:42:37.428Z,32.40
2022-09-17T08:45:15.268Z,32.40
2022-09-17T08:47:48.171Z,32.50
2022-09-17T08:50:33.724Z,32.60
2022-09-17T08:53:48.213Z,32.70
2022-09-17T08:56:22.802Z,32.80
2022-09-17T08:59:29.483Z,32.90
2022-09-17T09:02:24.893Z,33.00
2022-09-17T09:05:16.487Z,33.10
2022-09-17T09:07:53.699Z,33.30
2022-09-17T09:10:46.105Z,33.30
2022-09-17T09:13:22.461Z,33.40
2022-09-17T09:16:08.173Z,33.50
2022-09-17T09:18:43.433Z,33.50
2022-09-17T09:21:43.804Z,33.50
2022-09-17T09:24:27.367Z,33.50
2022-09-17T09:27:26.577Z,33.50
2022-09-17T09:30:12.588Z,33.40
2022-09-17T09:33:18.998Z,33.30
2022-09-17T09:35:48.377Z,33.10
2022-09-17T09:38:44.331Z,33.00
2022-09-17T09:41:24.923Z,32.80
2022-09-17T09:44:15.621Z,32.60
2022-09-17T09:47:20.311Z,32.40
2022-09-17T09:50:48.695Z,32.20
2022-09-17T09:54:06.261Z,32.10
2022-09-17T09:57:05.009Z,31.80
2022-09-17T09:59:35.157Z,31.70
2022-09-17T10:02:04.754Z,31.60
2022-09-17T10:04:34.286Z,31.50
2022-09-17T10:07:13.403Z,31.40
2022-09-17T10:09:48.282Z,31.30
2022-09-17T10:12:19.781Z,31.10
2022-09-17T10:14:49.614Z,31.10
2022-09-17T10:17:27.616Z,31.00
2022-09-17T10:20:23.149Z,30.90
2022-09-17T10:22:52.804Z,30.80
2022-09-17T10:25:36.158Z,30.80
2022-09-17T10:28:49.443Z,30.70
2022-09-17T10:31:19.066Z,30.70
2022-09-17T10:34:04.253Z,30.60
2022-09-17T10:36:47.473Z,30.50
2022-09-17T10:39:49.690Z,30.50
2022-09-17T10:42:22.101Z,30.40
2022-09-17T10:44:58.264Z,30.30
2022-09-17T10:47:39.446Z,30.30
2022-09-17T10:50:24.141Z,30.20
2022-09-17T10:53:09.853Z,30.20
2022-09-17T10:56:17.276Z,30.10
2022-09-17T10:59:24.942Z,30.00
2022-09-17T11:02:45.669Z,29.80
2022-09-17T11:05:59.553Z,29.50
2022-09-17T11:09:00.922Z,29.10
2022-09-17T11:12:28.898Z,28.80
2022-09-17T11:15:27.552Z,28.60
2022-09-17T11:18:39.379Z,28.30
2022-09-17T11:21:46.547Z,27.90
2022-09-17T11:25:06.279Z,27.60
2022-09-17T11:28:12.244Z,27.30
2022-09-17T11:31:20.442Z,27.00
2022-09-17T11:34:27.633Z,26.80
2022-09-17T11:37:32.029Z,26.60
2022-09-17T11:40:16.792Z,26.40
2022-09-17T11:43:29.966Z,26.30
2022-09-17T11:46:30.364Z,26.10
2022-09-17T11:49:52.140Z,26.00
2022-09-17T11:52:42.577Z,25.80
2022-09-17T11:55:44.304Z,25.60
2022-09-17T11:58:45.163Z,25.50
2022-09-17T12:02:03.716Z,25.40
2022-09-17T12:05:02.060Z,25.30
2022-09-17T12:08:02.669Z,25.20
2022-09-17T12:11:09.219Z,25.20
2022-09-17T12:13:57.300Z,25.20
2022-09-17T12:16:44.666Z,25.20
2022-09-17T12:19:33.811Z,25.20
2022-09-17T12:22:26.429Z,25.20
2022-09-17T12:24:56.495Z,25.20
2022-09-17T12:28:01.187Z,25.20
2022-09-17T12:31:21.790Z,25.30
2022-09-17T12:34:21.919Z,25.30
2022-09-17T12:37:27.364Z,25.30
2022-09-17T12:40:49.509Z,25.40
2022-09-17T12:44:06.574Z,25.50
2022-09-17T12:47:27.206Z,25.50
2022-09-17T12:50:36.995Z,25.50
2022-09-17T12:53:30.641Z,25.60
2022-09-17T12:56:34.367Z,25.60
2022-09-17T12:59:20.400Z,25.60
2022-09-17T13:02:27.264Z,25.70
2022-09-17T13:05:50.039Z,25.70
2022-09-17T13:09:00.930Z,25.70
2022-09-17T13:12:10.389Z,25.80
2022-09-17T13:15:32.074Z,25.80
2022-09-17T13:19:15.445Z,25.80
2022-09-17T13:22:18.519Z,25.80
2022-09-17T13:25:02.482Z,25.80
2022-09-17T13:27:32.162Z,25.80
2022-09-17T13:30:03.022Z,25.80
2022-09-17T13:32:53.730Z,25.90
2022-09-17T13:35:54.379Z,25.90
2022-09-17T13:38:25.454Z,25.90
2022-09-17T13:41:24.944Z,25.90
2022-09-17T13:44:03.045Z,25.90
2022-09-17T13:46:35.377Z,25.90
2022-09-17T13:49:18.483Z,26.00
2022-09-17T13:51:56.123Z,26.00
2022-09-17T13:54:47.736Z,26.00
2022-09-17T13:57:19.056Z,26.00
2022-09-17T14:00:07.032Z,25.90
2022-09-17T14:02:44.329Z,25.90
2022-09-17T14:05:50.010Z,25.90
2022-09-17T14:08:50.931Z,25.90
2022-09-17T14:11:59.582Z,25.90
2022-09-17T14:14:55.796Z,25.90
2022-09-17T14:17:51.881Z,25.90
2022-09-17T14:20:30.631Z,25.90
2022-09-17T14:23:17.319Z,25.80
2022-09-17T14:25:58.116Z,25.80
2022-09-17T14:28:55.463Z,25.80
2022-09-17T14:31:35.336Z,25.80
2022-09-17T14:34:19.158Z,25.80
2022-09-17T14:36:53.367Z,25.70
2022-09-17T14:39:42.505Z,25.70
2022-09-17T14:42:29.125Z,25.70
2022-09-17T14:45:18.053Z,25.70
2022-09-17T14:47:52.586Z,25.70
2022-09-17T14:50:28.148Z,25.70
2022-09-17T14:52:57.441Z,25.70
2022-09-17T14:55:33.246Z,25.60
2022-09-17T14:58:08.665Z,25.60
2022-09-17T15:00:40.236Z,25.60
2022-09-17T15:03:24.731Z,25.60
2022-09-17T15:05:57.278Z,25.60
2022-09-17T15:08:31.933Z,25.70
2022-09-17T15:11:05.338Z,25.70
2022-09-17T15:13:44.193Z,25.70
2022-09-17T15:16:28.867Z,25.70
2022-09-17T15:19:05.827Z,25.70
2022-09-17T15:21:50.457Z,25.70
2022-09-17T15:25:05.918Z,25.70
2022-09-17T15:27:45.151Z,25.70
2022-09-17T15:30:25.064Z,25.80
2022-09-17T15:32:59.909Z,25.80
2022-09-17T15:35:39.647Z,25.80
2022-09-17T15:38:24.219Z,25.80
2022-09-17T15:40:54.648Z,25.80
2022-09-17T15:43:35.376Z,25.70
2022-09-17T15:46:33.233Z,25.70
2022-09-17T15:49:36.509Z,25.70
2022-09-17T15:52:39.996Z,25.70
2022-09-17T15:55:36.124Z,25.70
2022-09-17T15:58:30.930Z,25.70
2022-09-17T16:01:51.808Z,25.70
2022-09-17T16:04:34.715Z,25.70
2022-09-17T16:07:31.537Z,25.70
2022-09-17T16:10:05.240Z,25.70
2022-09-17T16:12:37.400Z,25.70
2022-09-17T16:15:10.401Z,25.70
2022-09-17T16:17:48.583Z,25.70
2022-09-17T16:20:38.872Z,25.70
2022-09-17T16:23:08.201Z,25.70
2022-09-17T16:25:40.928Z,25.60
2022-09-17T16:28:22.432Z,25.60
2022-09-17T16:30:54.695Z,25.60
2022-09-17T16:33:29.338Z,25.60
2022-09-17T16:36:01.604Z,25.60
2022-09-17T16:38:40.016Z,25.60
2022-09-17T16:41:09.121Z,25.60
2022-09-17T16:43:41.828Z,25.60
2022-09-17T16:46:15.822Z,25.50
2022-09-17T16:48:47.481Z,25.50
2022-09-17T16:51:18.870Z,25.40
2022-09-17T16:53:50.993Z,25.40
2022-09-17T16:56:26.292Z,25.30
2022-09-17T16:59:01.213Z,25.30
2022-09-17T17:01:30.476Z,25.20
2022-09-17T17:04:04.500Z,25.20
2022-09-17T17:06:33.767Z,25.10
2022-09-17T17:09:05.858Z,25.00
2022-09-17T17:11:40.807Z,25.00
2022-09-17T17:14:15.625Z,24.90
2022-09-17T17:16:45.902Z,24.80
2022-09-17T17:19:18.814Z,24.80
2022-09-17T17:21:51.525Z,24.70
2022-09-17T17:24:24.242Z,24.70
2022-09-17T17:26:55.273Z,24.70
2022-09-17T17:29:24.646Z,24.60
2022-09-17T17:31:55.942Z,24.60
2022-09-17T17:34:25.164Z,24.60
2022-09-17T17:36:56.136Z,24.60
2022-09-17T17:39:28.121Z,24.60
2022-09-17T17:41:57.492Z,24.50
2022-09-17T17:44:31.651Z,24.50
2022-09-17T17:47:07.384Z,24.50
2022-09-17T17:49:37.105Z,24.40
2022-09-17T17:52:06.844Z,24.40
2022-09-17T17:54:36.025Z,24.40
2022-09-17T17:57:08.282Z,24.40
2022-09-17T17:59:42.167Z,24.40
2022-09-17T18:02:16.013Z,24.40
2022-09-17T18:04:45.487Z,24.40
2022-09-17T18:07:14.853Z,24.40
2022-09-17T18:09:48.786Z,24.30
2022-09-17T18:12:23.792Z,24.30
2022-09-17T18:14:58.590Z,24.30
2022-09-17T18:17:29.560Z,24.30
2022-09-17T18:20:04.632Z,24.30
2022-09-17T18:22:33.785Z,24.30
2022-09-17T18:25:05.813Z,24.30
2022-09-17T18:27:38.170Z,24.30
2022-09-17T18:30:08.374Z,24.30
2022-09-17T18:32:40.545Z,24.30
2022-09-17T18:35:15.524Z,24.30
2022-09-17T18:37:47.834Z,24.40
2022-09-17T18:40:19.514Z,24.40
2022-09-17T18:42:53.955Z,24.40
2022-09-17T18:45:25.273Z,24.40
2022-09-17T18:47:55.755Z,24.40
2022-09-17T18:50:35.028Z,24.40
2022-09-17T18:53:07.431Z,24.50
2022-09-17T18:55:39.384Z,24.50
2022-09-17T18:58:10.734Z,24.50
2022-09-17T19:00:42.808Z,24.50
2022-09-17T19:03:12.204Z,24.50
2022-09-17T19:05:44.712Z,24.50
2022-09-17T19:08:16.688Z,24.50
2022-09-17T19:10:53.046Z,24.50
2022-09-17T19:13:25.189Z,24.50
2022-09-17T19:16:00.526Z,24.50
2022-09-17T19:18:30.439Z,24.50
2022-09-17T19:21:16.388Z,24.50
2022-09-17T19:23:49.031Z,24.50
2022-09-17T19:26:28.084Z,24.50
2022-09-17T19:29:04.179Z,24.50
2022-09-17T19:31:36.480Z,24.40
2022-09-17T19:34:08.553Z,24.50
2022-09-17T19:36:42.679Z,24.40
2022-09-17T19:39:12.854Z,24.40
2022-09-17T19:41:42.130Z,24.40
2022-09-17T19:44:14.124Z,24.40
2022-09-17T19:46:47.478Z,24.40
2022-09-17T19:49:20.665Z,24.40
2022-09-17T19:51:52.688Z,24.40
2022-09-17T19:54:24.657Z,24.40
2022-09-17T19:56:59.745Z,24.40
2022-09-17T19:59:33.604Z,24.40
2022-09-17T20:02:02.941Z,24.40
2022-09-17T20:04:34.276Z,24.40
2022-09-17T20:07:05.485Z,24.40
2022-09-17T20:09:40.376Z,24.40
2022-09-17T20:12:12.040Z,24.40
2022-09-17T20:14:47.138Z,24.40
2022-09-17T20:17:19.104Z,24.40
2022-09-17T20:19:51.183Z,24.40
2022-09-17T20:22:25.464Z,24.40
2022-09-17T20:24:55.899Z,24.50
2022-09-17T20:27:27.901Z,24.50
2022-09-17T20:29:57.778Z,24.50
2022-09-17T20:32:33.417Z,24.50
2022-09-17T20:35:10.972Z,24.50
2022-09-17T20:40:36.392Z,24.60
2022-09-17T20:43:08.429Z,24.60
2022-09-17T20:45:37.578Z,24.60
2022-09-17T20:48:10.378Z,24.60
2022-09-17T20:50:40.260Z,24.60
2022-09-17T20:53:11.606Z,24.60
2022-09-17T20:55:40.786Z,24.60
2022-09-17T20:58:12.167Z,24.60
2022-09-17T21:00:43.491Z,24.60
2022-09-17T21:03:15.465Z,24.60
2022-09-17T21:05:46.465Z,24.60
2022-09-17T21:08:18.499Z,24.60
2022-09-17T21:10:53.424Z,24.60
2022-09-17T21:13:25.589Z,24.70
2022-09-17T21:16:01.452Z,24.70
2022-09-17T21:18:32.682Z,24.70
2022-09-17T21:21:09.403Z,24.70
2022-09-17T21:23:40.843Z,24.70
2022-09-17T21:26:29.666Z,24.70
2022-09-17T21:29:04.448Z,24.70
2022-09-17T21:31:37.968Z,24.70
2022-09-17T21:34:14.085Z,24.80
2022-09-17T21:36:49.195Z,24.70
2022-09-17T21:39:25.298Z,24.70
2022-09-17T21:42:00.032Z,24.70
2022-09-17T21:44:34.417Z,24.70
2022-09-17T21:47:12.414Z,24.70
2022-09-17T21:49:41.897Z,24.70
2022-09-17T21:52:11.294Z,24.70
2022-09-17T21:54:46.195Z,24.70
2022-09-17T21:57:20.131Z,24.80
2022-09-17T21:59:49.229Z,24.70
2022-09-17T22:02:21.224Z,24.70
2022-09-17T22:04:55.755Z,24.70
2022-09-17T22:07:25.027Z,24.80
2022-09-17T22:09:57.329Z,24.80
2022-09-17T22:12:31.874Z,24.80
2022-09-17T22:15:01.150Z,24.80
2022-09-17T22:17:30.472Z,24.70
2022-09-17T22:20:01.750Z,24.70
2022-09-17T22:22:35.397Z,24.70
2022-09-17T22:25:07.539Z,24.70
2022-09-17T22:27:41.389Z,24.70
2022-09-17T22:30:15.797Z,24.70
2022-09-17T22:32:45.023Z,24.70
2022-09-17T22:35:14.298Z,24.70
2022-09-17T22:37:48.245Z,24.80
2022-09-17T22:40:22.302Z,24.80
2022-09-17T22:42:54.372Z,24.70
2022-09-17T22:45:23.752Z,24.70
2022-09-17T22:47:56.423Z,24.80
2022-09-17T22:50:27.781Z,24.70
2022-09-17T22:52:59.979Z,24.70
2022-09-17T22:55:34.640Z,24.80
2022-09-17T22:58:06.907Z,24.70
2022-09-17T23:00:38.934Z,24.80
2022-09-17T23:03:13.170Z,24.80
2022-09-17T23:05:45.260Z,24.80
2022-09-17T23:08:20.762Z,24.80
2022-09-17T23:10:57.938Z,24.80
2022-09-17T23:13:28.971Z,24.80
2022-09-17T23:16:10.006Z,24.80
2022-09-17T23:18:39.576Z,24.80
2022-09-17T23:21:20.998Z,24.80
2022-09-17T23:23:53.947Z,24.90
2022-09-17T23:26:29.289Z,24.90
2022-09-17T23:29:03.854Z,24.90
2022-09-17T23:31:35.989Z,24.90
2022-09-17T23:34:09.714Z,24.90
2022-09-17T23:36:46.095Z,24.90
2022-09-17T23:39:20.335Z,24.90
2022-09-17T23:41:53.764Z,25.00
2022-09-17T23:44:25.159Z,25.00
2022-09-17T23:46:54.499Z,24.90
2022-09-17T23:49:26.303Z,25.00
2022-09-17T23:51:56.097Z,25.00
2022-09-17T23:54:29.449Z,25.00
2022-09-17T23:57:02.495Z,25.00
2022-09-17T23:59:37.338Z,25.00
